createdAt,value
2019-02-26T00:02:17.298Z,19.87
2019-02-26T00:04:51.652Z,20.00
2019-02-26T00:07:24.943Z,18.20
2019-02-26T00:09:59.463Z,18.70
2019-02-26T00:12:31.046Z,21.13
2019-02-26T00:15:05.889Z,17.73
2019-02-26T00:17:40.442Z,19.30
2019-02-26T00:20:12.776Z,23.63
2019-02-26T00:22:46.462Z,21.83
2019-02-26T00:25:20.357Z,23.07
2019-02-26T00:27:50.275Z,20.50
2019-02-26T00:30:21.899Z,19.77
2019-02-26T00:32:53.241Z,21.33
2019-02-26T00:35:27.476Z,22.63
2019-02-26T00:38:00.493Z,20.70
2019-02-26T00:40:32.648Z,20.27
2019-02-26T00:43:06.462Z,20.03
2019-02-26T00:45:39.115Z,20.00
2019-02-26T00:48:15.814Z,18.00
2019-02-26T00:50:46.465Z,20.83
2019-02-26T00:53:21.209Z,17.80
2019-02-26T00:55:51.646Z,19.03
2019-02-26T00:58:28.661Z,22.50
2019-02-26T01:00:59.265Z,19.77
2019-02-26T01:03:29.897Z,20.87
2019-02-26T01:06:01.549Z,20.77
2019-02-26T01:08:35.759Z,20.37
2019-02-26T01:11:07.770Z,19.53
2019-02-26T01:13:37.660Z,21.87
2019-02-26T01:16:08.379Z,21.37
2019-02-26T01:18:39.065Z,21.50
2019-02-26T01:21:11.742Z,22.40
2019-02-26T01:23:42.380Z,20.37
2019-02-26T01:26:13.385Z,23.77
2019-02-26T01:28:46.193Z,22.17
2019-02-26T01:31:16.417Z,21.97
2019-02-26T01:33:48.612Z,21.80
2019-02-26T01:36:21.487Z,22.60
2019-02-26T01:38:55.251Z,20.30
2019-02-26T01:41:27.319Z,20.67
2019-02-26T01:43:59.039Z,23.93
2019-02-26T01:46:30.005Z,19.33
2019-02-26T01:49:04.301Z,20.67
2019-02-26T01:51:35.048Z,22.27
2019-02-26T01:54:07.527Z,18.63
2019-02-26T01:56:37.965Z,19.07
2019-02-26T01:59:09.234Z,19.87
2019-02-26T02:01:42.181Z,18.37
2019-02-26T02:04:17.139Z,19.37
2019-02-26T02:06:48.471Z,20.23
2019-02-26T02:09:24.961Z,21.63
2019-02-26T02:11:57.379Z,20.23
2019-02-26T02:14:27.528Z,21.33
2019-02-26T02:17:00.878Z,19.80
2019-02-26T02:19:32.628Z,21.17
2019-02-26T02:22:03.852Z,21.63
2019-02-26T02:24:39.011Z,18.70
2019-02-26T02:27:08.147Z,20.73
2019-02-26T02:29:43.930Z,19.40
2019-02-26T02:32:11.646Z,20.03
2019-02-26T02:34:46.805Z,20.13
2019-02-26T02:37:19.812Z,20.83
2019-02-26T02:39:50.710Z,21.83
2019-02-26T02:42:22.003Z,22.30
2019-02-26T02:44:53.765Z,20.67
2019-02-26T02:47:25.279Z,21.93
2019-02-26T02:49:56.713Z,19.37
2019-02-26T02:52:29.671Z,22.83
2019-02-26T02:54:59.491Z,18.27
2019-02-26T02:57:32.678Z,24.60
2019-02-26T03:00:05.577Z,19.73
2019-02-26T03:02:40.580Z,20.57
2019-02-26T03:05:13.567Z,22.97
2019-02-26T03:07:50.398Z,23.43
2019-02-26T03:10:20.758Z,23.00
2019-02-26T03:12:54.405Z,21.63
2019-02-26T03:15:51.032Z,22.40
2019-02-26T03:18:22.116Z,21.57
2019-02-26T03:20:56.590Z,19.60
2019-02-26T03:23:26.213Z,25.83
2019-02-26T03:25:59.574Z,20.67
2019-02-26T03:28:34.839Z,20.30
2019-02-26T03:31:02.828Z,24.03
2019-02-26T03:33:33.497Z,24.90
2019-02-26T03:36:08.566Z,22.90
2019-02-26T03:38:44.172Z,24.53
2019-02-26T03:41:16.602Z,21.17
2019-02-26T03:43:47.297Z,23.97
2019-02-26T03:46:18.337Z,23.67
2019-02-26T03:48:48.966Z,24.20
2019-02-26T03:51:19.733Z,25.73
2019-02-26T03:53:50.425Z,24.23
2019-02-26T03:56:21.123Z,25.33
2019-02-26T03:58:54.470Z,22.73
2019-02-26T04:01:24.025Z,23.93
2019-02-26T04:03:56.994Z,31.10
2019-02-26T04:06:26.997Z,31.63
2019-02-26T04:08:58.508Z,22.83
2019-02-26T04:11:29.052Z,24.73
2019-02-26T04:14:00.011Z,27.27
2019-02-26T04:16:32.445Z,21.97
2019-02-26T04:19:05.866Z,24.07
2019-02-26T04:22:21.036Z,20.27
2019-02-26T04:24:55.031Z,23.27
2019-02-26T04:28:13.809Z,20.00
2019-02-26T04:30:52.412Z,21.17
2019-02-26T04:34:10.081Z,21.20
2019-02-26T04:37:04.769Z,23.70
2019-02-26T04:40:19.762Z,21.83
2019-02-26T04:43:04.719Z,24.47
2019-02-26T04:46:02.258Z,20.17
2019-02-26T04:48:46.774Z,26.23
2019-02-26T04:51:17.654Z,27.93
2019-02-26T04:53:50.638Z,24.13
2019-02-26T04:56:20.924Z,26.20
2019-02-26T04:58:51.890Z,29.13
2019-02-26T05:01:26.136Z,24.17
2019-02-26T05:04:00.866Z,27.90
2019-02-26T05:06:32.783Z,25.30
2019-02-26T05:09:05.577Z,27.53
2019-02-26T05:11:40.360Z,26.67
2019-02-26T05:14:11.710Z,24.77
2019-02-26T05:19:24.960Z,23.93
2019-02-26T05:21:58.772Z,25.37
2019-02-26T05:24:30.256Z,23.33
2019-02-26T05:27:02.437Z,22.03
2019-02-26T05:29:33.043Z,25.00
2019-02-26T05:32:04.894Z,27.20
2019-02-26T05:34:42.305Z,25.90
2019-02-26T05:37:11.979Z,23.67
2019-02-26T05:39:46.902Z,27.10
2019-02-26T05:42:17.957Z,21.77
2019-02-26T05:44:53.789Z,33.97
2019-02-26T05:47:23.899Z,24.63
2019-02-26T05:49:59.548Z,24.77
2019-02-26T05:52:32.927Z,30.57
2019-02-26T05:55:02.954Z,27.70
2019-02-26T05:57:33.547Z,26.23
2019-02-26T06:00:08.214Z,32.53
2019-02-26T06:02:40.170Z,25.37
2019-02-26T06:05:11.943Z,29.80
2019-02-26T06:07:43.553Z,33.60
2019-02-26T06:10:14.255Z,32.77
2019-02-26T06:12:46.680Z,26.90
2019-02-26T06:15:17.516Z,26.13
2019-02-26T06:17:49.050Z,27.63
2019-02-26T06:20:26.136Z,32.20
2019-02-26T06:22:56.471Z,26.67
2019-02-26T06:25:27.091Z,32.40
2019-02-26T06:28:07.695Z,22.37
2019-02-26T06:30:37.841Z,26.53
2019-02-26T06:33:09.795Z,33.80
2019-02-26T06:35:42.769Z,26.90
2019-02-26T06:38:14.091Z,23.23
2019-02-26T06:40:47.109Z,20.93
2019-02-26T06:43:20.534Z,22.13
2019-02-26T06:45:51.110Z,28.37
2019-02-26T06:48:26.893Z,24.50
2019-02-26T06:51:02.705Z,20.90
2019-02-26T06:53:33.054Z,30.03
2019-02-26T06:56:05.138Z,27.40
2019-02-26T06:58:38.889Z,23.57
2019-02-26T07:01:12.577Z,23.53
2019-02-26T07:03:44.106Z,27.33
2019-02-26T07:06:18.415Z,27.50
2019-02-26T07:08:51.055Z,28.70
2019-02-26T07:11:21.098Z,37.37
2019-02-26T07:13:53.814Z,30.43
2019-02-26T07:16:24.651Z,32.07
2019-02-26T07:18:56.281Z,39.40
2019-02-26T07:24:07.802Z,38.03
2019-02-26T07:26:41.728Z,34.77
2019-02-26T07:29:17.360Z,41.33
2019-02-26T07:31:47.310Z,41.10
2019-02-26T07:34:25.069Z,35.47
2019-02-26T07:37:01.836Z,34.00
2019-02-26T07:39:32.402Z,37.77
2019-02-26T07:42:03.459Z,40.63
2019-02-26T07:44:34.699Z,36.43
2019-02-26T07:47:06.652Z,38.73
2019-02-26T07:49:38.365Z,32.40
2019-02-26T07:52:10.145Z,31.13
2019-02-26T07:54:44.710Z,30.37
2019-02-26T07:57:18.967Z,36.47
2019-02-26T07:59:53.385Z,32.57
2019-02-26T08:02:25.591Z,30.00
2019-02-26T08:04:57.378Z,28.87
2019-02-26T08:07:28.487Z,27.97
2019-02-26T08:09:59.595Z,22.70
2019-02-26T08:12:32.402Z,24.07
2019-02-26T08:15:04.979Z,25.47
2019-02-26T08:17:35.189Z,22.70
2019-02-26T08:20:12.452Z,22.67
2019-02-26T08:22:42.612Z,25.07
2019-02-26T08:25:14.903Z,21.50
2019-02-26T08:27:45.905Z,27.33
2019-02-26T08:30:22.905Z,27.07
2019-02-26T08:32:53.573Z,30.20
2019-02-26T08:35:23.881Z,21.00
2019-02-26T08:37:54.507Z,23.37
2019-02-26T08:40:25.103Z,27.13
2019-02-26T08:42:55.745Z,28.03
2019-02-26T08:45:26.351Z,27.77
2019-02-26T08:47:58.165Z,27.50
2019-02-26T08:50:33.083Z,24.70
2019-02-26T08:53:01.917Z,26.30
2019-02-26T08:55:32.512Z,34.37
2019-02-26T08:58:03.117Z,22.63
2019-02-26T09:00:34.345Z,31.57
2019-02-26T09:03:05.112Z,23.70
2019-02-26T09:05:36.824Z,24.60
2019-02-26T09:08:08.492Z,27.73
2019-02-26T09:10:41.329Z,29.53
2019-02-26T09:13:14.661Z,25.00
2019-02-26T09:15:44.612Z,19.53
2019-02-26T09:18:20.246Z,20.93
2019-02-26T09:20:50.924Z,24.23
2019-02-26T09:23:23.452Z,18.97
2019-02-26T09:28:31.976Z,25.43
2019-02-26T09:31:04.760Z,19.03
2019-02-26T09:33:35.532Z,23.67
2019-02-26T09:36:10.497Z,24.73
2019-02-26T09:38:41.758Z,23.37
2019-02-26T09:41:16.693Z,23.57
2019-02-26T09:43:48.143Z,26.97
2019-02-26T09:46:19.180Z,23.00
2019-02-26T09:48:49.853Z,23.70
2019-02-26T09:51:20.653Z,20.73
2019-02-26T09:53:54.386Z,27.27
2019-02-26T09:56:24.446Z,26.73
2019-02-26T09:58:55.018Z,24.60
2019-02-26T10:01:25.662Z,29.23
2019-02-26T10:03:58.262Z,29.43
2019-02-26T10:06:28.719Z,31.20
2019-02-26T10:08:59.389Z,23.60
2019-02-26T10:11:29.968Z,30.33
2019-02-26T10:14:02.735Z,26.53
2019-02-26T10:16:36.709Z,27.53
2019-02-26T10:19:10.646Z,31.53
2019-02-26T10:21:44.486Z,23.23
2019-02-26T10:24:14.561Z,30.90
2019-02-26T10:26:45.316Z,26.43
2019-02-26T10:29:17.551Z,23.60
2019-02-26T10:31:48.158Z,25.83
2019-02-26T10:34:20.878Z,25.13
2019-02-26T10:36:51.891Z,34.00
2019-02-26T10:39:23.699Z,32.97
2019-02-26T10:41:54.898Z,24.70
2019-02-26T10:44:25.455Z,22.67
2019-02-26T10:46:57.789Z,21.37
2019-02-26T10:49:28.784Z,31.00
2019-02-26T10:51:59.737Z,19.50
2019-02-26T10:54:35.472Z,20.33
2019-02-26T10:57:06.549Z,22.63
2019-02-26T10:59:35.828Z,23.17
2019-02-26T11:02:07.219Z,23.43
2019-02-26T11:04:41.058Z,22.60
2019-02-26T11:07:11.620Z,25.27
2019-02-26T11:09:44.728Z,24.13
2019-02-26T11:12:14.935Z,23.87
2019-02-26T11:14:45.560Z,26.70
2019-02-26T11:17:17.965Z,21.60
2019-02-26T11:19:49.187Z,22.80
2019-02-26T11:22:25.202Z,23.40
2019-02-26T11:25:00.529Z,21.17
2019-02-26T11:27:31.106Z,22.00
2019-02-26T11:30:05.096Z,21.60
2019-02-26T11:32:39.644Z,22.43
2019-02-26T11:35:14.677Z,19.63
2019-02-26T11:37:47.309Z,27.03
2019-02-26T11:40:23.029Z,25.90
2019-02-26T11:42:54.187Z,22.13
2019-02-26T11:45:25.513Z,21.70
2019-02-26T11:47:58.191Z,19.17
2019-02-26T11:50:28.827Z,19.13
2019-02-26T11:52:59.902Z,21.67
2019-02-26T11:55:37.586Z,20.30
2019-02-26T11:58:12.612Z,22.90
2019-02-26T12:00:50.419Z,19.23
2019-02-26T12:03:22.727Z,23.83
2019-02-26T12:05:54.186Z,23.30
2019-02-26T12:08:25.838Z,24.50
2019-02-26T12:11:01.116Z,19.90
2019-02-26T12:13:29.543Z,26.90
2019-02-26T12:16:00.217Z,21.53
2019-02-26T12:18:30.836Z,21.07
2019-02-26T12:21:03.523Z,22.97
2019-02-26T12:23:34.950Z,22.80
2019-02-26T12:26:06.694Z,23.23
2019-02-26T12:28:38.391Z,25.30
2019-02-26T12:31:12.665Z,24.20
2019-02-26T12:33:42.313Z,23.37
2019-02-26T12:36:13.010Z,21.97
2019-02-26T12:38:44.157Z,22.37
2019-02-26T12:41:18.201Z,26.87
2019-02-26T12:43:51.909Z,24.60
2019-02-26T12:46:25.058Z,23.43
2019-02-26T12:48:55.536Z,21.33
2019-02-26T12:51:31.184Z,24.10
2019-02-26T12:54:00.542Z,25.90
2019-02-26T12:56:34.090Z,25.30
2019-02-26T12:59:06.797Z,24.90
2019-02-26T13:01:36.869Z,23.13
2019-02-26T13:04:09.462Z,21.70
2019-02-26T13:06:41.142Z,22.63
2019-02-26T13:09:13.466Z,28.97
2019-02-26T13:12:00.633Z,22.33
2019-02-26T13:14:16.434Z,20.40
2019-02-26T13:16:48.824Z,25.57
2019-02-26T13:19:25.301Z,23.07
2019-02-26T13:22:00.925Z,23.93
2019-02-26T13:24:28.033Z,24.07
2019-02-26T13:26:59.720Z,25.23
2019-02-26T13:29:31.578Z,23.70
2019-02-26T13:32:02.279Z,21.03
2019-02-26T13:34:33.468Z,21.40
2019-02-26T13:37:05.076Z,26.67
2019-02-26T13:39:38.478Z,21.03
2019-02-26T13:42:19.264Z,22.97
2019-02-26T13:44:48.694Z,21.27
2019-02-26T13:47:19.393Z,21.73
2019-02-26T13:49:52.045Z,24.17
2019-02-26T13:52:22.882Z,22.57
2019-02-26T13:54:56.674Z,22.40
2019-02-26T13:57:28.119Z,22.97
2019-02-26T13:59:59.271Z,20.43
2019-02-26T14:02:30.372Z,18.80
2019-02-26T14:05:01.076Z,23.70
2019-02-26T14:07:31.739Z,22.50
2019-02-26T14:10:02.711Z,23.40
2019-02-26T14:12:33.797Z,20.87
2019-02-26T14:15:07.429Z,23.40
2019-02-26T14:17:40.008Z,21.30
2019-02-26T14:20:18.660Z,19.80
2019-02-26T14:22:49.479Z,19.00
2019-02-26T14:25:20.219Z,21.90
2019-02-26T14:27:51.360Z,19.97
2019-02-26T14:30:23.817Z,19.20
2019-02-26T14:32:54.451Z,21.37
2019-02-26T14:35:25.097Z,18.37
2019-02-26T14:37:55.743Z,22.13
2019-02-26T14:40:30.279Z,23.10
2019-02-26T14:43:05.367Z,22.23
2019-02-26T14:45:39.622Z,25.40
2019-02-26T14:48:10.755Z,21.23
2019-02-26T14:50:41.448Z,22.13
2019-02-26T14:53:15.636Z,21.43
2019-02-26T14:55:45.392Z,22.13
2019-02-26T14:58:17.152Z,24.63
2019-02-26T15:00:57.199Z,22.50
2019-02-26T15:03:24.266Z,22.63
2019-02-26T15:05:54.918Z,24.97
2019-02-26T15:08:25.921Z,26.50
2019-02-26T15:10:56.557Z,22.80
2019-02-26T15:13:27.190Z,22.57
2019-02-26T15:15:58.263Z,20.03
2019-02-26T15:18:29.373Z,19.70
2019-02-26T15:21:04.136Z,18.33
2019-02-26T15:23:34.771Z,20.20
2019-02-26T15:26:05.430Z,21.20
2019-02-26T15:28:35.952Z,19.63
2019-02-26T15:31:06.558Z,19.07
2019-02-26T15:33:37.199Z,17.67
2019-02-26T15:36:08.902Z,18.07
2019-02-26T15:38:39.768Z,21.27
2019-02-26T15:41:10.772Z,18.33
2019-02-26T15:43:41.617Z,23.20
2019-02-26T15:46:12.228Z,22.20
2019-02-26T15:48:42.884Z,21.00
2019-02-26T15:51:14.606Z,19.77
2019-02-26T15:53:46.382Z,20.73
2019-02-26T15:56:17.050Z,22.00
2019-02-26T15:58:48.614Z,18.57
2019-02-26T16:01:20.210Z,20.00
2019-02-26T16:03:50.863Z,21.83
2019-02-26T16:06:21.489Z,23.90
2019-02-26T16:08:52.088Z,20.90
2019-02-26T16:11:22.712Z,20.97
2019-02-26T16:13:53.307Z,20.87
2019-02-26T16:16:25.276Z,18.73
2019-02-26T16:19:00.324Z,19.80
2019-02-26T16:21:29.599Z,21.17
2019-02-26T16:24:00.186Z,20.83
2019-02-26T16:26:30.744Z,21.90
2019-02-26T16:29:01.599Z,19.67
2019-02-26T16:31:32.336Z,24.33
2019-02-26T16:34:03.295Z,21.00
2019-02-26T16:36:34.880Z,21.73
2019-02-26T16:39:09.746Z,24.03
2019-02-26T16:41:40.005Z,20.27
2019-02-26T16:44:10.638Z,22.70
2019-02-26T16:46:42.706Z,23.27
2019-02-26T16:49:13.382Z,21.33
2019-02-26T16:51:44.117Z,24.40
2019-02-26T16:54:14.716Z,24.73
2019-02-26T16:56:54.339Z,26.93
2019-02-26T16:59:21.773Z,25.67
2019-02-26T17:01:54.991Z,27.33
2019-02-26T17:04:26.290Z,27.30
2019-02-26T17:06:57.282Z,25.33
2019-02-26T17:09:28.386Z,25.67
2019-02-26T17:11:59.240Z,23.70
2019-02-26T17:14:30.279Z,25.80
2019-02-26T17:17:01.609Z,28.30
2019-02-26T17:19:33.799Z,26.00
2019-02-26T17:22:05.147Z,27.10
2019-02-26T17:24:36.119Z,29.47
2019-02-26T17:27:07.224Z,24.77
2019-02-26T17:29:37.836Z,27.80
2019-02-26T17:32:08.877Z,26.53
2019-02-26T17:34:41.070Z,29.00
2019-02-26T17:37:15.318Z,26.97
2019-02-26T17:39:46.359Z,27.47
2019-02-26T17:42:20.217Z,32.30
2019-02-26T17:44:57.439Z,25.60
2019-02-26T17:47:26.095Z,29.17
2019-02-26T17:49:56.650Z,29.17
2019-02-26T17:52:27.304Z,29.40
2019-02-26T17:54:58.015Z,24.20
2019-02-26T17:57:28.611Z,27.20
2019-02-26T18:00:00.144Z,28.77
2019-02-26T18:02:31.149Z,27.80
2019-02-26T18:05:01.904Z,25.20
2019-02-26T18:07:38.381Z,28.20
2019-02-26T18:10:12.913Z,24.83
2019-02-26T18:12:46.017Z,25.90
2019-02-26T18:15:18.520Z,26.07
2019-02-26T18:17:49.238Z,30.03
2019-02-26T18:20:21.813Z,26.50
2019-02-26T18:22:52.537Z,23.40
2019-02-26T18:25:25.619Z,26.80
2019-02-26T18:27:58.067Z,30.03
2019-02-26T18:30:32.554Z,28.10
2019-02-26T18:33:06.620Z,30.13
2019-02-26T18:35:38.821Z,28.40
2019-02-26T18:38:10.220Z,29.77
2019-02-26T18:40:41.284Z,26.80
2019-02-26T18:43:14.306Z,27.17
2019-02-26T18:45:44.209Z,32.47
2019-02-26T18:48:15.120Z,28.23
2019-02-26T18:50:46.517Z,29.07
2019-02-26T18:53:17.929Z,29.63
2019-02-26T18:55:51.755Z,25.80
2019-02-26T18:58:21.118Z,27.67
2019-02-26T19:00:54.070Z,27.93
2019-02-26T19:03:25.174Z,24.77
2019-02-26T19:05:55.799Z,25.77
2019-02-26T19:08:26.552Z,22.53
2019-02-26T19:10:57.064Z,28.23
2019-02-26T19:13:27.693Z,24.30
2019-02-26T19:15:58.359Z,26.97
2019-02-26T19:18:35.513Z,26.10
2019-02-26T19:21:09.269Z,25.97
2019-02-26T19:23:56.996Z,27.63
2019-02-26T19:26:29.507Z,22.00
2019-02-26T19:29:02.835Z,26.90
2019-02-26T19:31:34.527Z,26.23
2019-02-26T19:34:05.022Z,23.00
2019-02-26T19:36:35.639Z,21.90
2019-02-26T19:39:08.561Z,20.40
2019-02-26T19:41:39.166Z,24.60
2019-02-26T19:44:10.003Z,24.67
2019-02-26T19:46:40.668Z,20.03
2019-02-26T19:49:11.312Z,26.60
2019-02-26T19:51:44.657Z,22.63
2019-02-26T19:54:15.066Z,20.77
2019-02-26T19:56:45.655Z,24.07
2019-02-26T19:59:16.985Z,23.10
2019-02-26T20:01:48.394Z,23.70
2019-02-26T20:04:19.031Z,20.07
2019-02-26T20:06:50.401Z,21.13
2019-02-26T20:09:23.877Z,21.00
2019-02-26T20:11:57.606Z,22.10
2019-02-26T20:14:32.932Z,20.50
2019-02-26T20:17:11.633Z,23.13
2019-02-26T20:22:13.371Z,22.97
2019-02-26T20:24:44.194Z,22.00
2019-02-26T20:27:14.808Z,25.37
2019-02-26T20:29:45.800Z,23.23
2019-02-26T20:32:17.934Z,22.73
2019-02-26T20:34:49.302Z,22.03
2019-02-26T20:37:38.588Z,28.60
2019-02-26T20:40:16.969Z,22.37
2019-02-26T20:42:47.924Z,25.53
2019-02-26T20:45:22.678Z,23.67
2019-02-26T20:47:54.481Z,22.17
2019-02-26T20:50:25.184Z,27.57
2019-02-26T20:52:57.299Z,27.23
2019-02-26T20:55:30.950Z,24.10
2019-02-26T20:58:01.735Z,21.23
2019-02-26T21:00:34.054Z,20.73
2019-02-26T21:03:08.373Z,22.87
2019-02-26T21:05:44.650Z,24.43
2019-02-26T21:08:14.762Z,22.30
2019-02-26T21:10:48.067Z,24.37
2019-02-26T21:13:18.628Z,22.80
2019-02-26T21:15:49.571Z,24.33
2019-02-26T21:18:20.054Z,27.20
2019-02-26T21:20:50.551Z,25.13
2019-02-26T21:23:21.064Z,24.07
2019-02-26T21:25:53.479Z,26.77
2019-02-26T21:28:24.475Z,25.97
2019-02-26T21:30:55.017Z,25.20
2019-02-26T21:33:30.524Z,25.03
2019-02-26T21:35:58.777Z,25.57
2019-02-26T21:38:30.811Z,23.07
2019-02-26T21:44:03.253Z,22.50
2019-02-26T21:46:33.788Z,21.13
2019-02-26T21:49:04.271Z,23.27
2019-02-26T21:51:34.992Z,19.13
2019-02-26T21:54:05.584Z,21.90
2019-02-26T21:56:42.259Z,21.50
2019-02-26T21:59:12.491Z,24.67
2019-02-26T22:01:45.847Z,22.17
2019-02-26T22:04:19.941Z,20.37
2019-02-26T22:06:50.421Z,18.73
2019-02-26T22:09:20.893Z,21.93
2019-02-26T22:11:51.601Z,25.33
2019-02-26T22:14:22.382Z,18.80
2019-02-26T22:16:53.477Z,22.20
2019-02-26T22:19:28.584Z,19.90
2019-02-26T22:21:59.158Z,18.70
2019-02-26T22:24:29.920Z,20.37
2019-02-26T22:27:00.556Z,19.33
2019-02-26T22:29:31.023Z,19.93
2019-02-26T22:32:04.856Z,20.93
2019-02-26T22:34:38.863Z,22.53
2019-02-26T22:37:09.401Z,19.63
2019-02-26T22:39:42.886Z,20.17
2019-02-26T22:42:13.375Z,20.57
2019-02-26T22:44:44.303Z,19.53
2019-02-26T22:47:18.337Z,16.57
2019-02-26T22:49:49.015Z,22.00
2019-02-26T22:52:19.631Z,19.03
2019-02-26T22:54:50.331Z,21.43
2019-02-26T22:57:23.750Z,20.53
2019-02-26T22:59:53.506Z,19.03
2019-02-26T23:02:25.752Z,21.83
2019-02-26T23:04:57.099Z,17.07
2019-02-26T23:07:27.758Z,18.97
2019-02-26T23:09:58.231Z,18.60
2019-02-26T23:12:29.815Z,17.87
2019-02-26T23:15:00.738Z,20.40
2019-02-26T23:17:31.380Z,17.00
2019-02-26T23:20:02.285Z,21.63
2019-02-26T23:22:38.473Z,21.37
2019-02-26T23:25:16.085Z,21.40
2019-02-26T23:27:49.307Z,21.83
2019-02-26T23:30:20.527Z,19.97
2019-02-26T23:32:51.557Z,19.87
2019-02-26T23:35:22.224Z,20.47
2019-02-26T23:37:55.563Z,21.63
2019-02-26T23:40:27.454Z,24.47
2019-02-26T23:42:59.530Z,20.17
2019-02-26T23:45:30.176Z,22.87
2019-02-26T23:48:01.567Z,22.97
2019-02-26T23:50:32.269Z,20.23
2019-02-26T23:53:03.665Z,24.27
2019-02-26T23:55:37.234Z,25.23
2019-02-26T23:58:09.917Z,19.10
